createdAt,value
2017-10-02T00:01:39.137Z,14.60
2017-10-02T00:04:42.233Z,7.93
2017-10-02T00:07:44.350Z,7.70
2017-10-02T00:10:46.691Z,6.37
2017-10-02T00:13:48.733Z,3.23
2017-10-02T00:16:51.106Z,5.95
2017-10-02T00:19:53.171Z,4.37
2017-10-02T00:22:55.598Z,8.75
2017-10-02T00:25:57.540Z,5.77
2017-10-02T00:28:59.903Z,3.73
2017-10-02T00:32:01.844Z,4.10
2017-10-02T00:35:04.208Z,5.70
2017-10-02T00:38:06.170Z,4.47
2017-10-02T00:41:08.515Z,6.10
2017-10-02T00:44:10.587Z,6.28
2017-10-02T00:47:12.922Z,5.10
2017-10-02T00:50:14.927Z,5.33
2017-10-02T00:53:18.075Z,4.47
2017-10-02T00:56:20.050Z,3.00
2017-10-02T00:59:22.368Z,2.73
2017-10-02T01:02:24.303Z,7.67
2017-10-02T01:05:26.668Z,5.85
2017-10-02T01:08:28.593Z,4.80
2017-10-02T01:11:31.689Z,4.37
2017-10-02T01:14:33.626Z,6.30
2017-10-02T01:17:36.018Z,4.00
2017-10-02T01:20:38.044Z,5.40
2017-10-02T01:23:41.219Z,3.07
2017-10-02T01:26:43.183Z,3.27
2017-10-02T01:29:45.479Z,5.23
2017-10-02T01:32:47.465Z,7.18
2017-10-02T01:35:49.732Z,3.17
2017-10-02T01:38:51.666Z,5.07
2017-10-02T01:41:54.037Z,7.53
2017-10-02T01:44:55.986Z,3.75
2017-10-02T01:47:58.353Z,6.37
2017-10-02T01:51:00.289Z,6.60
2017-10-02T01:54:02.659Z,3.77
2017-10-02T01:57:05.516Z,4.30
2017-10-02T02:00:07.882Z,7.03
2017-10-02T02:03:10.024Z,7.63
2017-10-02T02:06:12.468Z,8.23
2017-10-02T02:09:14.401Z,4.60
2017-10-02T02:12:17.511Z,7.75
2017-10-02T02:15:19.460Z,6.23
2017-10-02T02:18:21.814Z,4.43
2017-10-02T02:21:23.857Z,7.72
2017-10-02T02:24:26.228Z,4.25
2017-10-02T02:27:28.271Z,8.23
2017-10-02T02:30:30.634Z,4.30
2017-10-02T02:33:32.648Z,7.83
2017-10-02T02:36:35.764Z,7.97
2017-10-02T02:39:37.807Z,6.77
2017-10-02T02:42:40.149Z,5.05
2017-10-02T02:45:42.201Z,10.27
2017-10-02T02:48:44.570Z,6.03
2017-10-02T02:51:46.528Z,4.90
2017-10-02T02:54:48.881Z,9.07
2017-10-02T02:57:50.815Z,5.45
2017-10-02T03:00:53.168Z,4.37
2017-10-02T03:03:55.131Z,4.93
2017-10-02T03:06:57.485Z,6.00
2017-10-02T03:09:59.440Z,8.80
2017-10-02T03:13:01.789Z,4.80
2017-10-02T03:16:03.724Z,10.48
2017-10-02T03:19:06.116Z,5.20
2017-10-02T03:22:08.149Z,13.00
2017-10-02T03:25:11.426Z,6.90
2017-10-02T03:28:13.372Z,10.98
2017-10-02T03:31:15.740Z,8.03
2017-10-02T03:34:17.783Z,7.80
2017-10-02T03:37:20.138Z,5.85
2017-10-02T03:40:22.183Z,5.57
2017-10-02T03:43:24.484Z,6.75
2017-10-02T03:46:26.483Z,7.43
2017-10-02T03:49:28.781Z,6.77
2017-10-02T03:52:30.702Z,8.40
2017-10-02T03:55:32.985Z,9.83
2017-10-02T03:58:35.011Z,9.80
2017-10-02T04:01:37.372Z,6.00
2017-10-02T04:04:39.401Z,6.87
2017-10-02T04:07:41.781Z,7.77
2017-10-02T04:10:43.831Z,6.43
2017-10-02T04:13:46.182Z,7.73
2017-10-02T04:16:48.226Z,9.90
2017-10-02T04:19:50.590Z,7.23
2017-10-02T04:22:52.646Z,8.67
2017-10-02T04:25:55.089Z,7.07
2017-10-02T04:28:57.020Z,10.03
2017-10-02T04:32:00.788Z,6.87
2017-10-02T04:35:03.531Z,11.23
2017-10-02T04:38:05.855Z,11.10
2017-10-02T04:41:07.796Z,12.60
2017-10-02T04:44:10.181Z,8.17
2017-10-02T04:47:12.123Z,12.93
2017-10-02T04:50:14.494Z,10.10
2017-10-02T04:53:16.512Z,10.47
2017-10-02T04:56:18.884Z,13.07
2017-10-02T04:59:20.889Z,8.67
2017-10-02T05:02:23.906Z,11.77
2017-10-02T05:05:25.833Z,8.67
2017-10-02T05:08:28.214Z,12.67
2017-10-02T05:11:30.138Z,8.90
2017-10-02T05:14:32.520Z,8.43
2017-10-02T05:17:34.509Z,11.93
2017-10-02T05:20:36.777Z,11.33
2017-10-02T05:23:39.478Z,11.70
2017-10-02T05:26:41.842Z,11.23
2017-10-02T05:29:43.798Z,14.80
2017-10-02T05:32:46.152Z,15.77
2017-10-02T05:35:48.246Z,12.57
2017-10-02T05:38:50.680Z,17.43
2017-10-02T05:41:52.719Z,13.80
2017-10-02T05:44:55.005Z,12.30
2017-10-02T05:47:57.019Z,13.33
2017-10-02T05:50:59.365Z,14.73
2017-10-02T05:54:01.303Z,9.80
2017-10-02T05:57:03.676Z,12.37
2017-10-02T06:00:05.612Z,11.87
2017-10-02T06:03:07.971Z,14.20
2017-10-02T06:06:09.919Z,12.93
2017-10-02T06:09:12.274Z,8.57
2017-10-02T06:12:14.197Z,12.03
2017-10-02T06:15:17.415Z,12.87
2017-10-02T06:18:19.347Z,17.63
2017-10-02T06:21:21.730Z,10.50
2017-10-02T06:24:23.655Z,14.77
2017-10-02T06:27:26.016Z,16.57
2017-10-02T06:30:27.973Z,11.43
2017-10-02T06:33:30.326Z,12.00
2017-10-02T06:36:32.248Z,9.73
2017-10-02T06:39:35.338Z,9.77
2017-10-02T06:42:37.296Z,13.10
2017-10-02T06:45:39.646Z,13.50
2017-10-02T06:48:41.595Z,17.17
2017-10-02T06:51:43.969Z,12.10
2017-10-02T06:54:45.889Z,13.97
2017-10-02T06:57:48.262Z,11.50
2017-10-02T07:00:50.207Z,15.13
2017-10-02T07:03:52.664Z,8.37
2017-10-02T07:06:54.615Z,10.13
2017-10-02T07:09:57.138Z,10.93
2017-10-02T07:12:59.944Z,15.43
2017-10-02T07:16:02.302Z,12.17
2017-10-02T07:19:04.323Z,11.60
2017-10-02T07:22:07.421Z,10.87
2017-10-02T07:25:09.385Z,8.90
2017-10-02T07:28:11.737Z,8.30
2017-10-02T07:31:13.667Z,11.27
2017-10-02T07:34:16.068Z,7.13
2017-10-02T07:37:17.990Z,6.87
2017-10-02T07:40:20.436Z,10.93
2017-10-02T07:43:22.355Z,9.77
2017-10-02T07:46:24.767Z,7.20
2017-10-02T07:49:26.806Z,7.28
2017-10-02T07:52:29.102Z,6.97
2017-10-02T07:55:31.030Z,9.70
2017-10-02T07:58:33.366Z,11.02
2017-10-02T08:01:35.301Z,8.15
2017-10-02T08:04:38.393Z,8.07
2017-10-02T08:07:40.338Z,7.60
2017-10-02T08:10:42.688Z,7.65
2017-10-02T08:13:44.634Z,10.57
2017-10-02T08:16:46.996Z,7.33
2017-10-02T08:19:48.924Z,6.95
2017-10-02T08:22:52.130Z,8.07
2017-10-02T08:25:54.069Z,7.95
2017-10-02T08:28:56.428Z,7.47
2017-10-02T08:31:58.345Z,6.93
2017-10-02T08:35:01.438Z,7.75
2017-10-02T08:38:03.402Z,7.32
2017-10-02T08:41:05.764Z,7.82
2017-10-02T08:44:07.828Z,10.73
2017-10-02T08:47:10.146Z,8.20
2017-10-02T08:50:12.077Z,7.68
2017-10-02T08:53:15.225Z,7.18
2017-10-02T08:56:17.255Z,7.80
2017-10-02T08:59:19.609Z,7.60
2017-10-02T09:02:21.550Z,7.57
2017-10-02T09:05:24.843Z,7.97
2017-10-02T09:08:26.791Z,8.02
2017-10-02T09:11:29.134Z,8.70
2017-10-02T09:14:31.081Z,7.97
2017-10-02T09:17:33.422Z,8.75
2017-10-02T09:20:35.355Z,8.77
2017-10-02T09:23:38.667Z,8.75
2017-10-02T09:26:40.593Z,9.07
2017-10-02T09:29:42.965Z,9.00
2017-10-02T09:32:44.903Z,8.50
2017-10-02T09:35:47.285Z,9.23
2017-10-02T09:38:49.328Z,7.75
2017-10-02T09:41:51.689Z,7.47
2017-10-02T09:44:54.557Z,7.60
2017-10-02T09:47:56.863Z,11.07
2017-10-02T09:50:59.672Z,8.65
2017-10-02T09:54:04.156Z,8.98
2017-10-02T09:57:06.963Z,8.68
2017-10-02T10:00:09.262Z,8.93
2017-10-02T10:03:11.256Z,8.70
2017-10-02T10:06:13.613Z,9.73
2017-10-02T10:09:15.559Z,8.98
2017-10-02T10:12:17.919Z,9.68
2017-10-02T10:15:19.853Z,9.40
2017-10-02T10:18:22.189Z,8.90
2017-10-02T10:21:24.991Z,8.48
2017-10-02T10:24:27.352Z,8.77
2017-10-02T10:27:29.295Z,7.47
2017-10-02T10:30:31.650Z,10.50
2017-10-02T10:33:33.587Z,8.05
2017-10-02T10:36:35.950Z,10.77
2017-10-02T10:39:37.916Z,7.05
2017-10-02T10:42:40.228Z,12.57
2017-10-02T10:45:42.211Z,8.38
2017-10-02T10:48:44.571Z,6.70
2017-10-02T10:51:46.520Z,6.95
2017-10-02T10:54:48.963Z,7.37
2017-10-02T10:57:50.926Z,8.10
2017-10-02T11:00:53.290Z,7.32
2017-10-02T11:03:55.549Z,5.30
2017-10-02T11:06:57.837Z,6.78
2017-10-02T11:09:59.777Z,8.13
2017-10-02T11:13:02.061Z,7.40
2017-10-02T11:16:04.761Z,5.90
2017-10-02T11:19:07.119Z,4.82
2017-10-02T11:22:09.057Z,10.55
2017-10-02T11:25:11.425Z,9.15
2017-10-02T11:28:13.381Z,9.48
2017-10-02T11:31:15.724Z,8.35
2017-10-02T11:34:17.665Z,13.62
2017-10-02T11:37:20.056Z,8.73
2017-10-02T11:40:22.003Z,11.63
2017-10-02T11:43:24.293Z,10.07
2017-10-02T11:46:27.126Z,13.27
2017-10-02T11:49:29.463Z,15.55
2017-10-02T11:52:31.413Z,12.63
2017-10-02T11:55:33.767Z,18.15
2017-10-02T11:58:35.707Z,12.13
2017-10-02T12:01:38.075Z,12.73
2017-10-02T12:04:40.022Z,16.42
2017-10-02T12:07:42.405Z,12.73
2017-10-02T12:10:44.333Z,19.30
2017-10-02T12:13:46.619Z,14.93
2017-10-02T12:16:48.554Z,13.98
2017-10-02T12:19:50.922Z,19.25
2017-10-02T12:22:52.961Z,17.00
2017-10-02T12:25:55.359Z,14.65
2017-10-02T12:28:57.354Z,24.87
2017-10-02T12:31:59.703Z,16.08
2017-10-02T12:35:01.658Z,13.35
2017-10-02T12:38:04.030Z,17.77
2017-10-02T12:41:05.971Z,16.42
2017-10-02T12:44:08.317Z,22.15
2017-10-02T12:47:10.290Z,18.02
2017-10-02T12:50:12.598Z,14.87
2017-10-02T12:53:15.315Z,18.52
2017-10-02T12:56:17.661Z,11.57
2017-10-02T12:59:19.709Z,15.27
2017-10-02T13:02:22.063Z,16.70
2017-10-02T13:05:24.013Z,13.18
2017-10-02T13:08:26.376Z,19.00
2017-10-02T13:11:28.412Z,17.35
2017-10-02T13:14:30.773Z,17.25
2017-10-02T13:17:32.710Z,22.23
2017-10-02T13:20:35.075Z,17.23
2017-10-02T13:23:37.026Z,18.48
2017-10-02T13:26:39.387Z,16.48
2017-10-02T13:29:41.427Z,17.62
2017-10-02T13:32:43.775Z,18.37
2017-10-02T13:35:45.706Z,13.77
2017-10-02T13:38:48.050Z,15.35
2017-10-02T13:41:49.975Z,18.37
2017-10-02T13:44:53.074Z,16.20
2017-10-02T13:47:55.007Z,22.50
2017-10-02T13:50:57.371Z,19.23
2017-10-02T13:53:59.323Z,18.80
2017-10-02T13:57:01.681Z,16.60
2017-10-02T14:00:03.756Z,22.40
2017-10-02T14:03:06.031Z,22.45
2017-10-02T14:06:08.038Z,24.58
2017-10-02T14:09:10.600Z,17.58
2017-10-02T14:12:12.533Z,18.02
2017-10-02T14:15:14.806Z,24.12
2017-10-02T14:18:16.803Z,25.20
2017-10-02T14:21:19.076Z,22.30
2017-10-02T14:24:21.866Z,25.50
2017-10-02T14:27:25.254Z,26.05
2017-10-02T14:30:27.220Z,25.75
2017-10-02T14:33:29.565Z,19.83
2017-10-02T14:36:31.485Z,21.77
2017-10-02T14:39:34.578Z,25.15
2017-10-02T14:42:36.532Z,18.37
2017-10-02T14:45:39.689Z,18.77
2017-10-02T14:48:42.391Z,20.80
2017-10-02T14:51:44.749Z,25.70
2017-10-02T14:54:46.684Z,27.80
2017-10-02T14:57:49.139Z,16.50
2017-10-02T15:00:51.101Z,16.45
2017-10-02T15:03:53.386Z,22.98
2017-10-02T15:06:56.945Z,23.60
2017-10-02T15:09:59.314Z,23.58
2017-10-02T15:13:01.251Z,19.27
2017-10-02T15:16:03.586Z,21.42
2017-10-02T15:19:05.537Z,26.45
2017-10-02T15:22:07.890Z,29.37
2017-10-02T15:25:09.854Z,22.33
2017-10-02T15:28:12.612Z,25.12
2017-10-02T15:31:14.548Z,23.95
2017-10-02T15:34:17.007Z,19.15
2017-10-02T15:37:18.960Z,25.23
2017-10-02T15:40:21.441Z,24.75
2017-10-02T15:43:23.473Z,28.10
2017-10-02T15:46:25.839Z,27.30
2017-10-02T15:49:27.832Z,24.92
2017-10-02T15:52:30.253Z,17.60
2017-10-02T15:55:32.302Z,27.30
2017-10-02T15:58:34.667Z,30.98
2017-10-02T16:01:36.595Z,31.45
2017-10-02T16:04:38.961Z,31.30
2017-10-02T16:07:40.980Z,28.67
2017-10-02T16:10:44.097Z,24.90
2017-10-02T16:13:46.184Z,32.67
2017-10-02T16:16:48.488Z,30.98
2017-10-02T16:19:50.428Z,26.85
2017-10-02T16:22:52.719Z,22.05
2017-10-02T16:25:54.860Z,37.47
2017-10-02T16:28:57.207Z,28.87
2017-10-02T16:31:59.167Z,27.52
2017-10-02T16:35:01.524Z,27.25
2017-10-02T16:38:03.567Z,33.38
2017-10-02T16:41:05.837Z,31.20
2017-10-02T16:44:08.806Z,25.12
2017-10-02T16:47:11.142Z,28.15
2017-10-02T16:50:13.108Z,27.52
2017-10-02T16:53:15.480Z,24.33
2017-10-02T16:56:17.601Z,30.37
2017-10-02T16:59:20.072Z,29.23
2017-10-02T17:02:22.019Z,29.42
2017-10-02T17:05:24.379Z,34.05
2017-10-02T17:08:26.500Z,27.02
2017-10-02T17:11:29.603Z,23.38
2017-10-02T17:14:31.531Z,29.20
2017-10-02T17:17:33.841Z,24.80
2017-10-02T17:20:35.851Z,25.08
2017-10-02T17:23:38.214Z,41.53
2017-10-02T17:26:40.155Z,24.95
2017-10-02T17:29:42.519Z,29.40
2017-10-02T17:32:45.119Z,30.90
2017-10-02T17:35:47.454Z,28.30
2017-10-02T17:38:49.387Z,31.00
2017-10-02T17:41:51.732Z,28.77
2017-10-02T17:44:53.899Z,26.23
2017-10-02T17:47:56.276Z,28.70
2017-10-02T17:50:58.229Z,26.25
2017-10-02T17:54:00.561Z,24.58
2017-10-02T17:57:02.691Z,24.05
2017-10-02T18:00:05.066Z,20.80
2017-10-02T18:03:07.015Z,22.23
2017-10-02T18:06:09.380Z,30.92
2017-10-02T18:09:11.328Z,34.20
2017-10-02T18:12:13.692Z,25.20
2017-10-02T18:15:15.673Z,20.35
2017-10-02T18:18:18.013Z,23.12
2017-10-02T18:21:20.057Z,24.27
2017-10-02T18:24:22.399Z,21.80
2017-10-02T18:27:24.348Z,25.62
2017-10-02T18:30:26.719Z,27.50
2017-10-02T18:33:28.646Z,27.62
2017-10-02T18:36:31.021Z,25.45
2017-10-02T18:39:32.969Z,19.92
2017-10-02T18:42:35.335Z,24.25
2017-10-02T18:45:37.287Z,29.50
2017-10-02T18:48:39.614Z,26.65
2017-10-02T18:51:41.564Z,25.15
2017-10-02T18:54:43.936Z,32.85
2017-10-02T18:57:45.889Z,25.73
2017-10-02T19:00:48.968Z,24.37
2017-10-02T19:03:50.911Z,22.75
2017-10-02T19:06:53.247Z,20.67
2017-10-02T19:09:55.181Z,35.42
2017-10-02T19:12:57.461Z,32.33
2017-10-02T19:15:59.394Z,32.03
2017-10-02T19:19:01.760Z,22.80
2017-10-02T19:22:03.696Z,27.75
2017-10-02T19:25:06.096Z,29.05
2017-10-02T19:28:08.057Z,20.25
2017-10-02T19:31:10.364Z,24.90
2017-10-02T19:34:12.407Z,26.33
2017-10-02T19:37:14.818Z,29.90
2017-10-02T19:40:16.766Z,26.30
2017-10-02T19:43:19.085Z,21.58
2017-10-02T19:46:21.692Z,19.80
2017-10-02T19:49:24.017Z,23.17
2017-10-02T19:52:25.947Z,19.60
2017-10-02T19:55:28.232Z,24.08
2017-10-02T19:58:30.272Z,23.42
2017-10-02T20:01:32.806Z,22.15
2017-10-02T20:04:34.760Z,16.48
2017-10-02T20:07:37.355Z,23.55
2017-10-02T20:10:39.326Z,17.90
2017-10-02T20:13:42.296Z,19.20
2017-10-02T20:16:44.286Z,24.70
2017-10-02T20:19:46.713Z,20.90
2017-10-02T20:22:49.557Z,23.67
2017-10-02T20:25:51.926Z,25.33
2017-10-02T20:28:54.666Z,21.52
2017-10-02T20:31:58.238Z,31.30
2017-10-02T20:35:00.183Z,26.17
2017-10-02T20:38:02.599Z,25.92
2017-10-02T20:41:05.315Z,19.33
2017-10-02T20:44:07.676Z,22.70
2017-10-02T20:47:09.624Z,21.65
2017-10-02T20:50:12.080Z,21.17
2017-10-02T20:53:14.035Z,18.40
2017-10-02T20:56:16.374Z,18.00
2017-10-02T20:59:18.403Z,21.25
2017-10-02T21:02:21.508Z,26.52
2017-10-02T21:05:23.659Z,20.10
2017-10-02T21:08:26.011Z,17.98
2017-10-02T21:11:28.105Z,23.67
2017-10-02T21:14:31.281Z,25.20
2017-10-02T21:17:33.316Z,25.65
2017-10-02T21:20:35.568Z,28.33
2017-10-02T21:23:37.560Z,21.48
2017-10-02T21:26:39.903Z,28.38
2017-10-02T21:29:41.939Z,21.00
2017-10-02T21:32:44.394Z,22.45
2017-10-02T21:35:46.338Z,29.48
2017-10-02T21:38:48.686Z,21.15
2017-10-02T21:41:50.651Z,20.48
2017-10-02T21:44:53.008Z,27.65
2017-10-02T21:47:54.949Z,24.35
2017-10-02T21:50:57.315Z,24.60
2017-10-02T21:53:59.255Z,23.73
2017-10-02T21:57:01.612Z,23.67
2017-10-02T22:00:03.559Z,32.47
2017-10-02T22:03:05.900Z,28.58
2017-10-02T22:06:08.601Z,26.98
2017-10-02T22:09:10.953Z,27.62
2017-10-02T22:12:12.938Z,24.35
2017-10-02T22:18:23.412Z,23.12
2017-10-02T22:21:26.569Z,23.40
2017-10-02T22:24:29.287Z,27.98
2017-10-02T22:27:31.643Z,31.77
2017-10-02T22:30:33.572Z,28.42
2017-10-02T22:33:35.939Z,28.12
2017-10-02T22:36:37.890Z,26.77
2017-10-02T22:39:40.260Z,27.30
2017-10-02T22:42:42.334Z,25.88
2017-10-02T22:45:44.663Z,25.75
2017-10-02T22:48:46.612Z,18.05
2017-10-02T22:51:49.141Z,20.25
2017-10-02T22:54:51.958Z,19.02
2017-10-02T22:57:54.309Z,26.02
2017-10-02T23:00:56.359Z,21.62
2017-10-02T23:03:58.716Z,40.75
2017-10-02T23:07:00.754Z,29.75
2017-10-02T23:10:03.134Z,36.17
2017-10-02T23:13:05.162Z,24.40
2017-10-02T23:16:07.680Z,27.73
2017-10-02T23:19:09.678Z,25.00
2017-10-02T23:22:12.043Z,16.98
2017-10-02T23:25:14.091Z,16.80
2017-10-02T23:28:16.540Z,19.37
2017-10-02T23:31:18.591Z,15.63
2017-10-02T23:34:20.947Z,25.70
2017-10-02T23:37:22.873Z,24.75
2017-10-02T23:40:26.118Z,25.23
2017-10-02T23:43:28.139Z,25.20
2017-10-02T23:46:30.477Z,20.08
2017-10-02T23:49:32.402Z,19.77
2017-10-02T23:52:35.521Z,15.10
2017-10-02T23:55:37.450Z,15.90
2017-10-02T23:58:39.763Z,15.07
